Time;durP1;ratioP1;P1;durP2;ratioP2;P2;SDS_P1;SDS_P2;PMS_P1;PMS_P2;Temp;Humidity;BMP_temperature;BMP_pressure;BME280_temperature;BME280_humidity;BME280_pressure;Samples;Min_cycle;Max_cycle;Signal;HPM_P1;HPM_P2
2023/12/15 00:00:24;;;;;;;38.95;22.00;;;;;;;6.06;78.46;100823.69;5005404;28;20041;-77
2023/12/15 00:02:51;;;;;;;41.85;22.25;;;;;;;6.06;78.41;100825.44;5010902;28;20052;-78
2023/12/15 00:05:17;;;;;;;35.97;21.17;;;;;;;6.06;78.27;100831.53;5077715;22;20045;-75
2023/12/15 00:07:44;;;;;;;35.00;20.85;;;;;;;6.06;78.40;100834.13;5005306;28;20057;-73
2023/12/15 00:10:12;;;;;;;39.75;21.33;;;;;;;6.06;78.35;100830.69;5144537;22;20045;-88
2023/12/15 00:12:38;;;;;;;42.42;21.23;;;;;;;6.06;78.42;100825.44;5003559;28;20057;-87
2023/12/15 00:15:05;;;;;;;36.40;21.35;;;;;;;6.06;78.41;100828.91;5012165;28;20452;-87
2023/12/15 00:17:32;;;;;;;35.88;21.25;;;;;;;6.05;78.58;100827.19;5010524;28;20730;-87
2023/12/15 00:19:59;;;;;;;41.17;22.48;;;;;;;6.07;78.71;100827.16;4987825;28;20062;-87
2023/12/15 00:22:26;;;;;;;38.35;22.92;;;;;;;6.07;78.80;100833.25;4987691;28;20060;-87
2023/12/15 00:24:53;;;;;;;40.38;22.27;;;;;;;6.07;78.56;100828.03;5004894;28;20108;-87
2023/12/15 00:27:20;;;;;;;37.63;22.17;;;;;;;6.09;78.70;100839.31;4989703;28;20547;-87
2023/12/15 00:29:46;;;;;;;39.85;21.98;;;;;;;6.08;79.01;100840.19;4989868;28;20137;-87
2023/12/15 00:32:13;;;;;;;40.58;22.33;;;;;;;6.09;78.97;100844.53;5012388;28;20108;-87
2023/12/15 00:34:39;;;;;;;41.83;23.15;;;;;;;6.11;78.98;100840.16;5012503;28;20116;-87
2023/12/15 00:37:07;;;;;;;39.80;22.27;;;;;;;6.13;78.84;100847.94;5010713;28;20046;-87
2023/12/15 00:39:40;;;;;;;41.70;23.63;;;;;;;6.12;78.58;100846.22;5011243;28;20636;-87
2023/12/15 00:42:07;;;;;;;41.10;23.75;;;;;;;6.16;79.03;100850.50;5000337;28;20141;-87
2023/12/15 00:44:33;;;;;;;45.20;23.42;;;;;;;6.17;79.01;100864.44;5012415;28;20480;-87
2023/12/15 00:47:00;;;;;;;40.72;22.60;;;;;;;6.18;78.91;100867.03;4999108;28;20116;-87
2023/12/15 00:49:27;;;;;;;38.08;22.58;;;;;;;6.20;79.07;100864.38;5008319;28;20459;-88
2023/12/15 00:51:54;;;;;;;41.40;22.60;;;;;;;6.19;78.81;100860.03;5004438;28;20062;-88
2023/12/15 00:54:21;;;;;;;43.38;23.48;;;;;;;6.20;78.96;100864.38;5009965;28;20140;-87
2023/12/15 00:56:51;;;;;;;43.88;24.30;;;;;;;6.19;78.69;100865.25;4995399;28;20133;-88
2023/12/15 00:59:18;;;;;;;41.90;22.70;;;;;;;6.19;78.81;100867.88;5003680;28;20133;-88
2023/12/15 01:01:45;;;;;;;37.63;22.25;;;;;;;6.21;79.26;100861.72;4989318;28;20112;-87
2023/12/15 01:04:11;;;;;;;43.78;24.13;;;;;;;6.19;78.97;100871.34;5004210;28;20116;-88
2023/12/15 01:06:38;;;;;;;44.05;23.90;;;;;;;6.21;78.95;100876.56;4999558;28;20073;-87
2023/12/15 01:09:05;;;;;;;38.08;22.98;;;;;;;6.21;79.21;100873.94;4983562;28;20054;-87
2023/12/15 01:11:31;;;;;;;41.15;23.05;;;;;;;6.21;79.04;100871.31;4987498;28;20066;-87
2023/12/15 01:13:58;;;;;;;43.60;23.73;;;;;;;6.23;78.95;100879.97;5015780;28;20257;-87
2023/12/15 01:16:25;;;;;;;43.47;23.58;;;;;;;6.23;78.77;100874.75;4999283;28;20069;-87
2023/12/15 01:18:51;;;;;;;43.08;23.25;;;;;;;6.22;78.68;100880.88;5000644;28;20125;-87
2023/12/15 01:21:18;;;;;;;46.28;24.83;;;;;;;6.22;78.90;100880.88;5015461;28;20081;-86
2023/12/15 01:23:45;;;;;;;46.63;25.35;;;;;;;6.22;78.84;100880.88;5016456;28;20088;-86
2023/12/15 01:26:11;;;;;;;41.88;24.20;;;;;;;6.21;79.06;100882.63;5003200;28;20100;-87
2023/12/15 01:28:38;;;;;;;41.67;24.02;;;;;;;6.20;79.11;100886.13;5011306;28;20057;-86
2023/12/15 01:31:04;;;;;;;42.83;23.70;;;;;;;6.22;79.35;100886.13;4991663;28;20053;-86
2023/12/15 01:33:32;;;;;;;39.28;22.42;;;;;;;6.23;79.21;100885.22;5015668;28;20053;-86
2023/12/15 01:35:59;;;;;;;41.25;23.05;;;;;;;6.22;79.37;100879.16;5002525;28;20580;-85
2023/12/15 01:38:28;;;;;;;42.38;23.73;;;;;;;6.23;79.63;100885.22;5012712;28;20066;-86
2023/12/15 01:40:55;;;;;;;47.80;24.38;;;;;;;6.25;79.28;100891.28;4987387;28;20152;-87
2023/12/15 01:43:22;;;;;;;42.67;23.42;;;;;;;6.25;79.52;100892.13;4988760;28;20792;-86
2023/12/15 01:45:48;;;;;;;41.58;22.60;;;;;;;6.28;79.66;100892.97;4992727;28;20074;-86
2023/12/15 01:48:29;;;;;;;41.72;23.55;;;;;;;6.28;79.63;100892.97;4997938;28;20050;-86
2023/12/15 01:50:56;;;;;;;42.40;22.85;;;;;;;6.29;79.74;100892.94;4995608;28;20088;-86
2023/12/15 01:53:23;;;;;;;41.13;22.67;;;;;;;6.31;79.76;100892.91;5005331;28;20165;-86
2023/12/15 01:55:49;;;;;;;39.45;22.63;;;;;;;6.31;79.52;100896.38;5006606;28;20181;-86
2023/12/15 01:58:19;;;;;;;45.92;24.05;;;;;;;6.31;79.73;100900.75;5006457;28;20600;-86
2023/12/15 02:00:47;;;;;;;40.72;22.63;;;;;;;6.32;79.85;100895.47;5013539;28;20145;-85
2023/12/15 02:03:14;;;;;;;45.05;23.73;;;;;;;6.35;79.97;100907.63;5008367;28;20084;-86
2023/12/15 02:05:40;;;;;;;40.03;21.48;;;;;;;6.36;79.87;100912.00;4996998;28;20061;-86
2023/12/15 02:08:11;;;;;;;39.58;21.98;;;;;;;6.37;80.00;100914.56;4995223;28;20052;-86
2023/12/15 02:10:38;;;;;;;41.58;22.63;;;;;;;6.38;80.35;100916.28;5007110;28;20505;-85
2023/12/15 02:13:05;;;;;;;37.28;21.98;;;;;;;6.42;80.13;100918.84;5006738;28;20107;-85
2023/12/15 02:15:32;;;;;;;42.03;22.67;;;;;;;6.43;80.26;100912.72;4986125;28;20117;-85
2023/12/15 02:17:59;;;;;;;37.35;21.48;;;;;;;6.44;80.19;100919.66;4986111;28;20137;-85
2023/12/15 02:20:26;;;;;;;38.97;22.08;;;;;;;6.46;80.48;100929.19;5012878;28;20215;-85
2023/12/15 02:22:53;;;;;;;41.42;21.95;;;;;;;6.47;80.23;100923.06;4988503;28;20089;-85
2023/12/15 02:25:19;;;;;;;41.05;21.85;;;;;;;6.48;80.33;100923.94;5004096;28;20050;-85
2023/12/15 02:27:46;;;;;;;40.38;23.33;;;;;;;6.50;80.44;100919.53;5002821;28;20140;-85
2023/12/15 02:30:12;;;;;;;36.95;21.60;;;;;;;6.53;80.43;100932.53;5010708;28;20089;-86
2023/12/15 02:32:39;;;;;;;43.72;24.08;;;;;;;6.51;80.42;100916.03;5008700;28;20565;-85
2023/12/15 02:35:06;;;;;;;39.95;22.67;;;;;;;6.53;79.92;100922.09;5005842;28;20057;-85
2023/12/15 02:37:32;;;;;;;39.47;22.15;;;;;;;6.54;80.48;100915.94;5013728;28;20058;-85
2023/12/15 02:40:07;;;;;;;47.40;24.25;;;;;;;6.55;80.30;100917.69;4997283;28;20129;-85
2023/12/15 02:42:33;;;;;;;40.63;23.55;;;;;;;6.55;80.00;100917.69;5013678;28;20098;-85
2023/12/15 02:45:14;;;;;;;38.20;22.95;;;;;;;6.57;80.02;100925.47;5005205;28;20050;-85
2023/12/15 02:47:40;;;;;;;40.08;22.63;;;;;;;6.57;80.26;100915.88;4988556;28;20046;-85
2023/12/15 02:50:14;;;;;;;43.55;24.63;;;;;;;6.57;80.48;100920.25;5013709;28;20061;-85
2023/12/15 02:52:41;;;;;;;;;;;;;;;6.58;79.66;100928.06;5004768;28;20090;-85
2023/12/15 02:55:07;;;;;;;34.50;20.80;;;;;;;6.61;79.97;100925.41;5000182;28;19921;-85
2023/12/15 02:57:35;;;;;;;34.67;20.63;;;;;;;6.62;79.99;100928.88;4988083;28;20139;-85
2023/12/15 03:00:03;;;;;;;36.83;21.40;;;;;;;6.60;80.38;100918.44;5012189;28;20052;-85
2023/12/15 03:02:29;;;;;;;35.00;21.50;;;;;;;6.63;80.48;100935.84;4997464;28;20054;-85
2023/12/15 03:04:56;;;;;;;40.78;22.10;;;;;;;6.62;80.51;100934.97;5011140;28;20094;-85
2023/12/15 03:07:22;;;;;;;33.42;20.48;;;;;;;6.64;80.79;100943.66;5011433;28;20460;-85
2023/12/15 03:09:49;;;;;;;39.22;23.40;;;;;;;6.65;80.46;100940.13;4995775;28;20046;-85
2023/12/15 03:12:15;;;;;;;40.25;23.88;;;;;;;6.69;80.95;100950.53;4995853;28;20045;-85
2023/12/15 03:14:42;;;;;;;40.88;24.42;;;;;;;6.70;80.89;100953.13;5005003;28;20488;-85
2023/12/15 03:17:08;;;;;;;40.50;24.58;;;;;;;6.73;81.11;100957.44;5002537;28;20050;-85
2023/12/15 03:19:38;;;;;;;42.85;25.63;;;;;;;6.74;80.89;100954.78;5012118;28;20697;-85
2023/12/15 03:22:11;;;;;;;39.83;23.55;;;;;;;6.77;80.62;100959.09;4995643;28;20103;-85
2023/12/15 03:24:37;;;;;;;39.75;22.58;;;;;;;6.82;80.90;100965.09;4995954;28;20066;-85
2023/12/15 03:27:04;;;;;;;38.42;22.15;;;;;;;6.84;81.12;100971.13;4987439;28;20124;-84
2023/12/15 03:29:34;;;;;;;32.40;21.23;;;;;;;6.85;81.04;100961.53;5010152;28;20054;-85
2023/12/15 03:32:00;;;;;;;35.65;20.90;;;;;;;6.88;80.86;100964.94;5013290;28;20453;-85
2023/12/15 03:34:27;;;;;;;35.78;22.42;;;;;;;6.89;81.32;100963.19;5012150;28;20050;-85
2023/12/15 03:36:53;;;;;;;33.22;18.92;;;;;;;6.91;81.25;100969.25;5012935;28;20046;-85
2023/12/15 03:39:20;;;;;;;33.90;19.77;;;;;;;6.93;81.08;100971.81;4998313;28;20125;-85
2023/12/15 03:41:48;;;;;;;28.55;18.45;;;;;;;6.94;81.26;100976.16;5012871;28;20050;-85
2023/12/15 03:44:14;;;;;;;27.83;17.42;;;;;;;6.96;81.17;100977.00;5005374;28;20394;-85
2023/12/15 03:46:41;;;;;;;27.63;18.35;;;;;;;6.97;81.53;100987.44;4994657;28;20144;-85
2023/12/15 03:49:15;;;;;;;28.42;18.08;;;;;;;7.00;81.58;100987.34;5009383;28;20053;-86
2023/12/15 03:51:41;;;;;;;39.30;19.92;;;;;;;7.02;81.38;100993.44;5002644;28;20070;-85
2023/12/15 03:54:08;;;;;;;32.00;19.27;;;;;;;7.06;81.61;100998.59;5004672;28;20128;-85
2023/12/15 03:56:34;;;;;;;31.85;20.13;;;;;;;7.07;81.46;100998.59;5011375;28;20870;-86
2023/12/15 03:59:01;;;;;;;33.35;19.88;;;;;;;7.10;81.79;101008.13;5010920;28;20050;-86
2023/12/15 04:01:30;;;;;;;35.17;20.83;;;;;;;7.13;81.58;101000.19;4997789;28;20046;-86
2023/12/15 04:04:09;;;;;;;36.03;22.65;;;;;;;7.12;80.97;100998.47;5012799;28;20499;-85
2023/12/15 04:06:35;;;;;;;46.85;26.00;;;;;;;7.16;81.65;101000.13;5012624;28;20081;-86
2023/12/15 04:09:02;;;;;;;42.47;24.23;;;;;;;7.20;81.40;101003.50;4989337;28;20501;-86
2023/12/15 04:11:28;;;;;;;47.03;26.35;;;;;;;7.20;81.30;101003.50;5009358;28;20089;-86
2023/12/15 04:13:55;;;;;;;42.35;27.35;;;;;;;7.22;81.57;101005.19;5002889;28;20054;-86
2023/12/15 04:16:21;;;;;;;43.65;26.40;;;;;;;7.24;81.60;101011.28;4995201;28;20053;-86
2023/12/15 04:18:48;;;;;;;52.10;28.52;;;;;;;7.25;81.49;101007.75;5004503;28;20096;-85
2023/12/15 04:21:15;;;;;;;49.63;27.55;;;;;;;7.27;81.63;101010.34;5012375;28;20105;-86
2023/12/15 04:23:41;;;;;;;46.22;26.63;;;;;;;7.29;81.86;101011.19;4994952;28;20080;-86
2023/12/15 04:26:11;;;;;;;51.55;27.98;;;;;;;7.32;81.81;101010.25;5006424;28;20054;-86
2023/12/15 04:28:39;;;;;;;59.47;27.42;;;;;;;7.35;81.85;101011.03;5010607;28;20069;-86
2023/12/15 04:31:05;;;;;;;50.20;29.17;;;;;;;7.36;81.88;101010.13;5012352;28;20054;-86
2023/12/15 04:33:32;;;;;;;70.80;29.48;;;;;;;7.39;81.70;101015.31;5011937;23;20136;-74
2023/12/15 04:36:00;;;;;;;63.25;31.15;;;;;;;7.43;81.91;101016.09;5030452;28;20129;-74
2023/12/15 04:38:26;;;;;;;66.93;29.65;;;;;;;7.45;81.85;101018.66;5022927;28;20046;-74
2023/12/15 04:40:53;;;;;;;64.60;30.23;;;;;;;7.46;81.69;101023.88;5014699;28;20050;-74
2023/12/15 04:43:20;;;;;;;62.17;30.17;;;;;;;7.48;81.94;101011.59;5030286;28;20050;-74
2023/12/15 04:45:47;;;;;;;78.40;29.85;;;;;;;7.51;81.56;101023.78;5031652;28;20049;-74
2023/12/15 04:48:21;;;;;;;79.25;31.25;;;;;;;7.52;81.70;101023.72;5028046;28;20049;-74
2023/12/15 04:50:49;;;;;;;76.40;30.48;;;;;;;7.55;81.72;101022.78;5023601;28;20073;-74
2023/12/15 04:53:23;;;;;;;96.07;32.67;;;;;;;7.57;82.23;101028.88;5034158;28;20050;-74
2023/12/15 04:55:57;;;;;;;103.00;31.25;;;;;;;7.59;82.04;101031.47;5026046;28;20049;-74
2023/12/15 04:58:24;;;;;;;79.40;30.58;;;;;;;7.62;81.92;101039.25;5034282;28;20077;-74
2023/12/15 05:00:50;;;;;;;71.90;30.38;;;;;;;7.64;81.83;101042.69;5033214;28;20041;-74
2023/12/15 05:03:17;;;;;;;81.47;31.35;;;;;;;7.66;82.11;101031.25;5022072;28;20042;-74
2023/12/15 05:05:46;;;;;;;75.55;30.20;;;;;;;7.69;81.89;101035.56;5024289;28;20458;-74
2023/12/15 05:08:19;;;;;;;105.28;29.45;;;;;;;7.70;81.89;101034.66;5029237;28;20053;-74
2023/12/15 05:10:46;;;;;;;78.82;27.65;;;;;;;7.75;81.95;101038.06;5025016;28;20054;-74
2023/12/15 05:13:18;;;;;;;107.53;29.67;;;;;;;7.79;82.09;101041.44;5027402;28;20041;-74
2023/12/15 05:15:47;;;;;;;100.30;31.02;;;;;;;7.80;81.85;101045.78;5014603;28;20116;-74
2023/12/15 05:18:14;;;;;;;121.72;30.40;;;;;;;7.82;82.14;101055.34;5028032;28;20050;-74
2023/12/15 05:20:42;;;;;;;106.60;29.45;;;;;;;7.84;81.86;101052.69;5016558;28;20053;-74
2023/12/15 05:23:11;;;;;;;131.40;29.77;;;;;;;7.87;82.19;101057.84;5033692;28;20058;-74
2023/12/15 05:25:37;;;;;;;244.55;34.08;;;;;;;7.90;82.07;101063.03;5024371;28;20122;-74
2023/12/15 05:28:04;;;;;;;245.15;33.10;;;;;;;7.92;82.09;101073.44;5033541;28;20107;-74
2023/12/15 05:30:30;;;;;;;127.07;30.08;;;;;;;7.94;81.91;101074.28;5033973;28;20053;-74
2023/12/15 05:32:57;;;;;;;207.63;33.67;;;;;;;7.95;81.89;101081.25;5025604;28;20069;-74
2023/12/15 05:35:24;;;;;;;205.63;33.88;;;;;;;7.96;82.26;101090.84;5033568;28;20060;-74
2023/12/15 05:37:50;;;;;;;134.63;28.10;;;;;;;7.98;81.98;101089.06;5016135;28;20054;-74
2023/12/15 05:40:17;;;;;;;142.57;29.75;;;;;;;8.00;82.22;101094.25;5021941;28;20473;-73
2023/12/15 05:42:44;;;;;;;230.25;30.15;;;;;;;8.00;81.69;101084.63;5030609;28;20060;-74
2023/12/15 05:45:21;;;;;;;194.23;30.42;;;;;;;8.02;82.05;101095.94;5028765;28;20128;-74
2023/12/15 05:47:48;;;;;;;246.45;34.55;;;;;;;8.05;81.76;101100.25;5024373;28;20097;-74
2023/12/15 05:50:16;;;;;;;167.10;29.55;;;;;;;8.07;81.84;101101.94;5014230;28;20078;-74
2023/12/15 05:52:43;;;;;;;288.58;33.30;;;;;;;8.08;81.85;101105.44;5014290;28;20061;-74
2023/12/15 05:55:09;;;;;;;132.00;29.45;;;;;;;8.11;81.97;101118.44;5014001;28;20487;-74
2023/12/15 05:57:36;;;;;;;131.20;27.73;;;;;;;8.13;81.96;101119.28;5013820;28;20100;-74
2023/12/15 06:00:06;;;;;;;112.05;27.55;;;;;;;8.15;81.97;101122.72;5005633;28;20051;-74
2023/12/15 06:02:32;;;;;;;134.35;29.63;;;;;;;8.18;81.60;101121.78;5020982;28;20046;-74
2023/12/15 06:07:46;;;;;;;155.93;30.13;;;;;;;8.21;81.88;101116.47;4986577;28;20125;-80
2023/12/15 06:10:12;;;;;;;121.82;28.02;;;;;;;8.22;81.68;101126.03;4984593;28;20528;-80
2023/12/15 06:12:39;;;;;;;201.25;30.92;;;;;;;8.24;81.83;101120.75;4984538;28;20085;-80
2023/12/15 06:15:08;;;;;;;208.65;31.98;;;;;;;8.25;82.11;101119.84;4993859;28;20046;-80
2023/12/15 06:17:34;;;;;;;241.13;33.33;;;;;;;8.26;81.95;101117.19;4993093;28;20097;-81
2023/12/15 06:20:01;;;;;;;230.73;30.98;;;;;;;8.28;81.91;101125.03;4974822;28;20051;-81
2023/12/15 06:22:28;;;;;;;278.50;32.25;;;;;;;8.28;81.93;101125.91;4974508;28;20492;-80
2023/12/15 06:24:55;;;;;;;131.80;28.30;;;;;;;8.29;81.80;101127.63;4974741;28;20047;-81
2023/12/15 06:27:21;;;;;;;215.30;32.80;;;;;;;8.30;81.85;101134.59;4987813;28;20043;-81
2023/12/15 06:29:48;;;;;;;189.85;30.55;;;;;;;8.32;81.58;101129.31;4992604;28;20129;-80
2023/12/15 06:32:15;;;;;;;165.50;28.75;;;;;;;8.33;81.96;101136.25;4993229;28;20076;-80
2023/12/15 06:34:42;;;;;;;166.40;29.23;;;;;;;8.35;81.83;101134.47;4994087;28;20054;-80
2023/12/15 06:37:09;;;;;;;231.00;30.70;;;;;;;8.36;82.06;101144.06;4993702;28;20042;-80
2023/12/15 06:39:36;;;;;;;158.35;29.33;;;;;;;8.37;81.97;101142.31;4982382;28;20106;-81
2023/12/15 06:42:03;;;;;;;212.77;30.60;;;;;;;8.38;81.96;101147.53;4974140;28;20502;-79
2023/12/15 06:44:30;;;;;;;163.15;29.65;;;;;;;8.39;81.83;101151.00;4991976;28;20060;-81
2023/12/15 06:46:56;;;;;;;145.63;27.98;;;;;;;8.40;81.81;101140.47;4993607;28;20046;-80
2023/12/15 06:49:30;;;;;;;194.40;30.60;;;;;;;8.42;81.93;101153.56;4986196;28;20142;-80
2023/12/15 06:51:58;;;;;;;200.60;29.65;;;;;;;8.43;81.81;101153.53;4973957;28;20105;-79
2023/12/15 06:54:25;;;;;;;141.80;28.30;;;;;;;8.43;81.95;101147.41;4973997;28;20439;-80
2023/12/15 06:56:52;;;;;;;141.15;27.83;;;;;;;8.45;81.95;101156.94;4973704;28;20059;-79
2023/12/15 06:59:19;;;;;;;144.70;27.10;;;;;;;8.45;82.01;101159.56;4960574;28;20054;-81
2023/12/15 07:01:46;;;;;;;143.60;27.65;;;;;;;8.47;81.99;101160.41;4985537;28;20054;-76
2023/12/15 07:04:12;;;;;;;146.20;26.60;;;;;;;8.50;81.94;101163.84;4993552;28;20050;-76
2023/12/15 07:06:39;;;;;;;163.02;27.35;;;;;;;8.51;82.06;101176.06;4993276;28;20061;-76
2023/12/15 07:09:05;;;;;;;87.28;28.75;;;;;;;8.53;82.13;101187.44;4991857;28;20058;-76
2023/12/15 07:11:32;;;;;;;87.90;25.75;;;;;;;8.55;82.27;101190.84;4992457;28;20137;-76
2023/12/15 07:13:59;;;;;;;161.30;29.30;;;;;;;8.56;82.00;101188.19;4976131;28;20074;-77
2023/12/15 07:16:25;;;;;;;151.80;28.45;;;;;;;8.58;82.35;101193.41;4993054;28;20050;-76
2023/12/15 07:18:52;;;;;;;169.20;30.50;;;;;;;8.60;82.19;101202.13;4993143;28;20078;-76
2023/12/15 07:21:19;;;;;;;148.43;27.60;;;;;;;8.63;81.74;101201.19;4990617;28;20042;-76
2023/12/15 07:23:45;;;;;;;188.02;29.05;;;;;;;8.65;82.02;101213.38;4992602;28;20054;-78
2023/12/15 07:26:12;;;;;;;96.45;26.55;;;;;;;8.66;81.97;101212.47;4983938;28;20543;-76
2023/12/15 07:28:38;;;;;;;103.05;26.73;;;;;;;8.67;82.14;101216.81;4992348;28;20133;-76
2023/12/15 07:31:05;;;;;;;189.30;30.20;;;;;;;8.69;81.85;101225.50;4992269;28;20112;-76
2023/12/15 07:33:35;;;;;;;227.30;31.17;;;;;;;8.72;81.90;101229.81;4992226;28;20138;-77
2023/12/15 07:36:01;;;;;;;179.50;28.38;;;;;;;8.72;81.71;101224.56;4991055;28;20042;-76
2023/12/15 07:38:28;;;;;;;284.98;33.60;;;;;;;8.73;81.81;101227.16;4986631;28;20069;-78
2023/12/15 07:40:55;;;;;;;203.68;31.38;;;;;;;8.73;81.77;101223.66;4989337;28;20101;-77
2023/12/15 07:43:21;;;;;;;219.18;30.45;;;;;;;8.73;81.73;101221.91;4992077;28;20046;-76
2023/12/15 07:45:48;;;;;;;236.18;30.25;;;;;;;8.75;81.92;101219.25;4991511;28;20058;-76
2023/12/15 07:48:14;;;;;;;133.43;27.83;;;;;;;8.76;81.89;101210.47;4983756;28;20093;-77
2023/12/15 07:50:41;;;;;;;183.55;29.58;;;;;;;8.78;81.93;101221.78;4991695;28;20070;-77
2023/12/15 07:53:08;;;;;;;185.90;29.50;;;;;;;8.79;81.78;101225.28;4991816;28;20105;-76
2023/12/15 07:55:35;;;;;;;255.52;29.92;;;;;;;8.79;81.70;101233.16;4991913;28;20051;-76
2023/12/15 07:58:02;;;;;;;208.98;29.77;;;;;;;8.80;81.87;101232.25;4991777;28;20092;-76
2023/12/15 08:00:28;;;;;;;161.68;29.23;;;;;;;8.82;81.59;101240.97;4991739;28;20061;-77
2023/12/15 08:02:55;;;;;;;187.05;28.20;;;;;;;8.81;81.89;101240.09;4991762;28;20141;-76
2023/12/15 08:05:22;;;;;;;190.10;28.05;;;;;;;8.83;81.72;101240.06;4992159;28;20085;-78
2023/12/15 08:07:48;;;;;;;206.23;30.73;;;;;;;8.85;81.70;101246.09;4992263;28;20488;-77
2023/12/15 08:10:15;;;;;;;185.55;29.65;;;;;;;8.86;81.98;101246.06;4992396;28;20089;-76
2023/12/15 08:12:42;;;;;;;296.38;32.28;;;;;;;8.88;81.95;101253.91;4992379;28;20051;-76
2023/12/15 08:15:08;;;;;;;233.07;31.35;;;;;;;8.88;82.11;101256.53;4992251;28;20136;-78
2023/12/15 08:17:35;;;;;;;213.38;28.85;;;;;;;8.90;82.15;101269.63;4991965;28;20058;-77
2023/12/15 08:20:02;;;;;;;192.52;29.75;;;;;;;8.92;82.02;101267.81;4991634;28;20054;-76
2023/12/15 08:22:29;;;;;;;104.28;26.08;;;;;;;8.93;82.02;101267.78;4992160;28;20098;-77
2023/12/15 08:24:56;;;;;;;157.77;28.05;;;;;;;8.94;81.91;101280.00;4991122;28;20097;-77
2023/12/15 08:27:23;;;;;;;185.27;30.63;;;;;;;8.95;82.35;101284.38;4992084;28;20089;-76
2023/12/15 08:29:50;;;;;;;256.58;33.45;;;;;;;8.96;82.11;101293.97;4991947;28;20089;-78
2023/12/15 08:32:16;;;;;;;119.75;28.25;;;;;;;8.98;82.18;101305.28;4992280;28;20133;-77
2023/12/15 08:34:43;;;;;;;146.68;30.40;;;;;;;9.00;82.18;101313.13;4991967;28;20061;-76
2023/12/15 08:37:10;;;;;;;100.53;27.75;;;;;;;9.02;81.99;101320.97;4991907;28;20050;-77
2023/12/15 08:39:36;;;;;;;52.00;26.85;;;;;;;9.03;82.17;101328.81;4992051;28;20050;-77
2023/12/15 08:42:03;;;;;;;61.17;27.42;;;;;;;9.05;82.11;101331.44;4991930;28;20047;-77
2023/12/15 08:44:30;;;;;;;63.53;27.95;;;;;;;9.06;82.16;101327.88;4991995;28;20557;-77
2023/12/15 08:47:00;;;;;;;68.10;27.75;;;;;;;9.07;81.84;101335.72;4991755;28;20054;-78
2023/12/15 08:49:27;;;;;;;61.03;28.00;;;;;;;9.08;82.00;101333.97;4991637;28;20450;-76
2023/12/15 08:51:55;;;;;;;68.25;28.08;;;;;;;9.10;82.02;101329.53;4992060;28;20406;-77
2023/12/15 08:54:21;;;;;;;73.57;29.70;;;;;;;9.12;82.17;101335.59;4991951;28;20109;-77
2023/12/15 08:56:48;;;;;;;66.53;28.70;;;;;;;9.13;82.13;101335.56;4991569;28;20585;-77
2023/12/15 08:59:14;;;;;;;72.15;29.63;;;;;;;9.15;82.08;101339.94;4990645;28;20061;-74
2023/12/15 09:01:41;;;;;;;66.35;29.27;;;;;;;9.16;82.07;101339.03;4991377;28;20121;-76
2023/12/15 09:04:08;;;;;;;72.30;29.20;;;;;;;9.18;82.23;101339.84;4992019;28;20092;-76
2023/12/15 09:06:35;;;;;;;65.45;29.33;;;;;;;9.20;82.19;101341.53;4991443;28;20487;-77
2023/12/15 09:09:10;;;;;;;66.07;28.75;;;;;;;9.22;82.29;101352.00;4991640;28;20154;-76
2023/12/15 09:11:38;;;;;;;67.07;29.63;;;;;;;9.23;82.15;101356.34;4989868;28;20054;-77
2023/12/15 09:14:05;;;;;;;63.20;29.77;;;;;;;9.24;82.16;101364.19;4989833;28;20137;-76
2023/12/15 09:16:31;;;;;;;84.20;30.65;;;;;;;9.27;82.19;101365.03;4990827;28;20054;-76
2023/12/15 09:18:58;;;;;;;64.72;28.25;;;;;;;9.28;82.16;101372.00;4990990;28;20046;-78
2023/12/15 09:21:25;;;;;;;65.45;29.33;;;;;;;9.30;82.26;101372.84;4990935;28;20054;-76
2023/12/15 09:23:56;;;;;;;80.85;30.35;;;;;;;9.33;82.17;101378.00;4990986;28;20092;-76
2023/12/15 09:26:23;;;;;;;67.13;28.67;;;;;;;9.33;82.32;101383.25;4990814;28;20089;-77
2023/12/15 09:28:49;;;;;;;74.07;28.08;;;;;;;9.36;82.33;101393.69;4990857;28;20053;-77
2023/12/15 09:31:16;;;;;;;74.22;30.08;;;;;;;9.38;82.59;101399.75;4991082;28;20514;-76
2023/12/15 09:33:42;;;;;;;65.43;28.00;;;;;;;9.40;82.60;101397.97;4993451;28;20133;-76
2023/12/15 09:36:09;;;;;;;66.13;27.90;;;;;;;9.44;82.70;101404.00;4994327;28;20050;-77
2023/12/15 09:38:36;;;;;;;81.18;27.50;;;;;;;9.48;82.94;101418.81;4994425;28;20053;-76
2023/12/15 09:41:03;;;;;;;65.88;27.13;;;;;;;9.51;83.04;101413.47;4994162;28;20057;-76
2023/12/15 09:43:30;;;;;;;62.78;27.85;;;;;;;9.55;83.08;101414.25;4994434;28;20062;-77
2023/12/15 09:45:58;;;;;;;60.20;27.52;;;;;;;9.59;82.73;101426.41;4994174;28;20058;-76
2023/12/15 09:48:28;;;;;;;64.97;27.75;;;;;;;9.63;82.71;101428.06;4994117;28;20054;-76
2023/12/15 09:50:56;;;;;;;60.33;26.08;;;;;;;9.67;82.67;101423.56;4994079;28;20132;-76
2023/12/15 09:53:24;;;;;;;65.15;28.40;;;;;;;9.69;82.53;101435.81;4994139;28;20054;-77
2023/12/15 09:55:51;;;;;;;71.32;24.98;;;;;;;9.73;82.47;101437.44;4993785;28;20059;-76
2023/12/15 09:58:18;;;;;;;53.95;26.15;;;;;;;9.76;82.28;101449.66;4994037;28;20050;-76
2023/12/15 10:00:45;;;;;;;62.20;25.58;;;;;;;9.78;82.36;101447.84;4993969;28;20113;-77
2023/12/15 10:03:14;;;;;;;66.20;27.27;;;;;;;9.78;82.02;101461.84;4994074;28;20082;-76
2023/12/15 10:05:42;;;;;;;58.83;26.73;;;;;;;9.80;82.07;101458.31;4992372;28;20051;-79
2023/12/15 10:08:09;;;;;;;67.60;27.15;;;;;;;9.82;81.92;101464.38;4993774;28;20042;-76
2023/12/15 10:10:36;;;;;;;53.05;26.42;;;;;;;9.82;81.87;101469.63;4993642;28;20523;-77
2023/12/15 10:13:02;;;;;;;60.00;25.83;;;;;;;9.82;81.67;101465.25;4993903;28;20046;-75
2023/12/15 10:15:29;;;;;;;60.92;26.15;;;;;;;9.81;81.57;101457.41;4993863;28;20050;-75
2023/12/15 10:17:57;;;;;;;66.82;25.83;;;;;;;9.81;81.68;101460.03;4993440;28;20113;-77
2023/12/15 10:20:24;;;;;;;52.20;25.10;;;;;;;9.81;81.72;101452.13;4993373;28;20120;-75
2023/12/15 10:23:11;;;;;;;60.42;25.65;;;;;;;9.76;81.07;101452.28;4993500;28;20046;-78
2023/12/15 10:25:47;;;;;;;64.60;25.58;;;;;;;9.79;81.59;101452.19;4993718;28;20061;-78
2023/12/15 10:28:15;;;;;;;58.65;25.17;;;;;;;9.82;81.77;101453.88;4993599;28;20113;-76
2023/12/15 10:30:42;;;;;;;57.20;24.25;;;;;;;9.83;82.03;101450.34;4993466;28;20105;-77
2023/12/15 10:33:08;;;;;;;61.00;25.00;;;;;;;9.84;82.03;101457.31;4993350;28;20062;-76
2023/12/15 10:35:36;;;;;;;59.80;25.88;;;;;;;9.84;82.03;101457.31;4993171;28;20054;-75
2023/12/15 10:38:04;;;;;;;57.58;24.80;;;;;;;9.85;81.98;101461.69;4993251;28;20050;-76
2023/12/15 10:40:31;;;;;;;63.00;26.42;;;;;;;9.87;82.12;101470.41;4993262;28;20053;-76
2023/12/15 10:42:58;;;;;;;58.28;23.85;;;;;;;9.88;82.06;101477.38;4993205;28;20478;-76
2023/12/15 10:45:25;;;;;;;63.42;26.27;;;;;;;9.88;81.96;101470.34;4991872;28;20089;-75
2023/12/15 10:47:54;;;;;;;60.97;26.05;;;;;;;9.90;82.01;101468.53;4992831;28;20132;-75
2023/12/15 10:50:21;;;;;;;72.03;27.27;;;;;;;9.91;81.93;101464.16;4993281;28;20120;-75
2023/12/15 10:52:51;;;;;;;56.00;25.98;;;;;;;9.91;81.96;101462.38;4993201;28;20112;-76
2023/12/15 10:55:23;;;;;;;64.40;28.50;;;;;;;9.93;81.96;101462.34;4992940;28;20054;-78
2023/12/15 10:57:50;;;;;;;56.80;26.45;;;;;;;9.95;82.09;101463.19;4993037;28;20058;-77
2023/12/15 11:00:19;;;;;;;65.95;28.05;;;;;;;9.96;82.06;101464.91;4992709;28;20071;-76
2023/12/15 11:02:47;;;;;;;64.95;27.25;;;;;;;9.96;82.23;101478.06;4992907;28;20076;-76
2023/12/15 11:05:15;;;;;;;70.38;27.85;;;;;;;9.97;82.03;101476.25;4992766;28;20096;-75
2023/12/15 11:07:51;;;;;;;73.07;29.00;;;;;;;9.99;82.00;101482.38;4992678;28;20061;-75
2023/12/15 11:10:17;;;;;;;75.50;27.88;;;;;;;10.00;82.12;101489.34;4992590;28;20554;-76
2023/12/15 11:12:44;;;;;;;69.30;29.40;;;;;;;10.01;82.02;101483.16;4991347;28;20046;-77
2023/12/15 11:15:12;;;;;;;66.95;30.33;;;;;;;10.01;81.95;101486.69;4992504;28;20118;-76
2023/12/15 11:17:46;;;;;;;75.63;28.52;;;;;;;10.00;81.40;101498.13;4992438;28;20053;-77